Time;durP1;ratioP1;P1;durP2;ratioP2;P2;SDS_P1;SDS_P2;PMS_P1;PMS_P2;Temp;Humidity;BMP_temperature;BMP_pressure;BME280_temperature;BME280_humidity;BME280_pressure;Samples;Min_cycle;Max_cycle;Signal;HPM_P1;HPM_P2
2024/03/27 00:01:30;;;;;;;5.13;3.50;;;8.50;99.90;;;;;;5031967;28;20283;-62
2024/03/27 00:03:56;;;;;;;4.13;3.50;;;8.50;99.90;;;;;;5032551;28;20552;-62
2024/03/27 00:06:22;;;;;;;5.80;3.50;;;8.50;99.90;;;;;;5032240;28;20649;-63
2024/03/27 00:08:47;;;;;;;9.67;6.10;;;8.40;99.90;;;;;;5031963;28;21257;-63
2024/03/27 00:11:13;;;;;;;5.33;3.60;;;8.40;99.90;;;;;;5031788;28;20196;-63
2024/03/27 00:13:39;;;;;;;7.00;4.50;;;8.30;99.90;;;;;;5015081;28;20872;-62
2024/03/27 00:16:05;;;;;;;4.53;3.27;;;8.30;99.90;;;;;;5031922;28;20220;-62
2024/03/27 00:18:30;;;;;;;6.20;4.73;;;8.20;99.90;;;;;;5029347;28;20185;-62
2024/03/27 00:20:56;;;;;;;6.43;4.20;;;8.20;99.90;;;;;;5031598;28;20176;-63
2024/03/27 00:23:21;;;;;;;3.73;3.33;;;8.20;99.90;;;;;;5032357;28;20242;-63
2024/03/27 00:25:58;;;;;;;5.70;3.07;;;8.10;99.90;;;;;;5031613;28;20189;-63
2024/03/27 00:28:24;;;;;;;5.73;3.90;;;8.10;99.90;;;;;;5032046;28;20699;-61
2024/03/27 00:30:50;;;;;;;7.10;4.07;;;8.10;99.90;;;;;;5030378;28;20637;-62
2024/03/27 00:33:16;;;;;;;4.23;3.40;;;8.00;99.90;;;;;;5031607;28;20557;-61
2024/03/27 00:35:58;;;;;;;4.60;3.63;;;8.10;99.90;;;;;;5030409;28;20192;-66
2024/03/27 00:38:27;;;;;;;6.60;3.53;;;8.00;99.90;;;;;;5030292;28;20485;-62
2024/03/27 00:40:53;;;;;;;5.60;3.83;;;8.00;99.90;;;;;;5031446;28;20419;-63
2024/03/27 00:43:21;;;;;;;5.47;4.73;;;7.90;99.90;;;;;;5031172;28;20792;-63
2024/03/27 00:45:48;;;;;;;4.97;3.43;;;7.80;99.90;;;;;;5030986;28;20329;-62
2024/03/27 00:48:13;;;;;;;6.60;4.10;;;7.80;99.90;;;;;;5030879;28;20559;-64
2024/03/27 00:50:39;;;;;;;4.90;4.40;;;7.80;99.90;;;;;;5031262;28;20527;-62
2024/03/27 00:53:05;;;;;;;3.67;3.30;;;7.70;99.90;;;;;;5028148;28;20174;-62
2024/03/27 00:55:30;;;;;;;4.60;4.00;;;7.80;99.90;;;;;;5030838;28;20613;-62
2024/03/27 00:57:57;;;;;;;5.10;3.57;;;7.70;99.90;;;;;;5032251;28;20185;-62
2024/03/27 01:00:23;;;;;;;4.63;3.80;;;7.80;99.90;;;;;;5030623;28;20249;-62
2024/03/27 01:02:49;;;;;;;8.73;4.13;;;7.70;99.90;;;;;;5026963;28;20450;-62
2024/03/27 01:05:15;;;;;;;5.10;3.37;;;7.70;99.90;;;;;;5030083;28;20961;-63
2024/03/27 01:07:41;;;;;;;3.77;3.37;;;7.70;99.90;;;;;;5030691;28;20164;-62
2024/03/27 01:10:11;;;;;;;4.10;3.70;;;7.60;99.90;;;;;;5030640;28;20408;-61
2024/03/27 01:12:41;;;;;;;5.13;3.50;;;7.60;99.90;;;;;;5030951;28;20474;-61
2024/03/27 01:15:07;;;;;;;5.20;3.87;;;7.50;99.90;;;;;;5030581;28;20436;-63
2024/03/27 01:17:33;;;;;;;6.30;3.30;;;7.50;99.90;;;;;;5030826;28;20414;-62
2024/03/27 01:19:59;;;;;;;5.57;4.17;;;7.50;99.90;;;;;;5029623;28;20466;-62
2024/03/27 01:22:25;;;;;;;7.27;3.57;;;7.40;99.90;;;;;;5030852;28;20418;-62
2024/03/27 01:24:51;;;;;;;5.10;4.07;;;7.50;99.90;;;;;;5030486;28;20499;-62
2024/03/27 01:27:16;;;;;;;5.63;3.77;;;7.40;99.90;;;;;;5030858;28;20287;-61
2024/03/27 01:29:42;;;;;;;6.20;4.60;;;7.40;99.90;;;;;;5030618;28;20644;-62
2024/03/27 01:32:08;;;;;;;7.20;3.83;;;7.40;99.90;;;;;;5030351;28;20171;-62
2024/03/27 01:34:33;;;;;;;4.80;4.27;;;7.40;99.90;;;;;;4995397;28;20215;-62
2024/03/27 01:36:59;;;;;;;3.80;3.20;;;7.30;99.90;;;;;;5028448;28;20573;-62
2024/03/27 01:39:25;;;;;;;6.97;4.50;;;7.30;99.90;;;;;;5030499;28;20184;-62
2024/03/27 01:41:51;;;;;;;5.97;3.90;;;7.40;99.90;;;;;;5025227;28;20571;-62
2024/03/27 01:44:18;;;;;;;5.27;4.50;;;7.40;99.90;;;;;;5028934;28;20463;-63
2024/03/27 01:46:46;;;;;;;5.83;3.93;;;7.30;99.90;;;;;;5030506;28;20180;-62
2024/03/27 01:49:17;;;;;;;3.57;3.10;;;7.30;99.90;;;;;;5030346;28;20422;-63
2024/03/27 01:51:42;;;;;;;6.20;4.60;;;7.30;99.90;;;;;;5027354;28;20438;-64
2024/03/27 01:54:11;;;;;;;4.10;3.70;;;7.20;99.90;;;;;;5026092;28;20523;-63
2024/03/27 01:56:37;;;;;;;5.43;3.23;;;7.20;99.90;;;;;;5030398;28;20271;-62
2024/03/27 01:59:04;;;;;;;5.80;3.80;;;7.20;99.90;;;;;;5030342;28;20416;-63
2024/03/27 02:01:32;;;;;;;8.70;4.43;;;7.20;99.90;;;;;;5030329;28;20477;-63
2024/03/27 02:03:58;;;;;;;7.53;3.90;;;7.10;99.90;;;;;;5029779;28;20498;-63
2024/03/27 02:06:24;;;;;;;5.80;3.33;;;7.10;99.90;;;;;;5028987;28;20487;-63
2024/03/27 02:08:50;;;;;;;6.07;4.00;;;7.10;99.90;;;;;;5030555;28;20412;-63
2024/03/27 02:11:16;;;;;;;6.50;4.07;;;7.10;99.90;;;;;;5027767;28;20497;-63
2024/03/27 02:13:44;;;;;;;8.50;3.70;;;7.10;99.90;;;;;;5027724;28;20181;-63
2024/03/27 02:16:10;;;;;;;5.40;3.53;;;7.10;99.90;;;;;;5029839;28;20888;-63
2024/03/27 02:18:35;;;;;;;5.60;4.13;;;7.00;99.90;;;;;;5030292;28;20420;-63
2024/03/27 02:21:02;;;;;;;5.43;3.93;;;7.10;99.90;;;;;;5029836;28;20227;-63
2024/03/27 02:23:36;;;;;;;4.13;3.67;;;7.00;99.90;;;;;;5030102;28;20275;-63
2024/03/27 02:26:15;;;;;;;4.90;3.87;;;7.00;99.90;;;;;;5029527;28;20553;-63
2024/03/27 02:28:43;;;;;;;4.60;3.30;;;7.00;99.90;;;;;;5022038;28;20949;-63
2024/03/27 02:31:09;;;;;;;5.87;4.00;;;7.00;99.90;;;;;;5029766;28;20413;-64
2024/03/27 02:33:34;;;;;;;6.43;4.23;;;7.00;99.90;;;;;;5029834;28;20479;-63
2024/03/27 02:36:00;;;;;;;5.57;4.73;;;7.00;99.90;;;;;;5024688;28;20209;-63
2024/03/27 02:38:27;;;;;;;4.90;3.17;;;6.90;99.90;;;;;;5021778;28;20180;-63
2024/03/27 02:40:53;;;;;;;4.33;3.27;;;6.90;99.90;;;;;;5029617;28;20179;-63
2024/03/27 02:43:18;;;;;;;7.53;3.80;;;6.90;99.90;;;;;;5028313;28;20511;-63
2024/03/27 02:45:44;;;;;;;5.23;3.50;;;7.00;99.90;;;;;;5028331;28;20451;-62
2024/03/27 02:48:10;;;;;;;5.37;3.70;;;7.00;99.90;;;;;;5028852;28;20257;-63
2024/03/27 02:50:35;;;;;;;7.60;3.73;;;7.00;99.90;;;;;;5029404;28;20258;-62
2024/03/27 02:53:01;;;;;;;4.87;3.60;;;7.00;99.90;;;;;;5029007;28;20183;-62
2024/03/27 02:55:26;;;;;;;4.70;3.47;;;6.90;99.90;;;;;;5023322;28;20196;-62
2024/03/27 02:57:52;;;;;;;5.40;3.93;;;6.90;99.90;;;;;;5028452;28;20217;-62
2024/03/27 03:00:18;;;;;;;7.47;3.87;;;7.00;99.90;;;;;;5028715;28;20591;-62
2024/03/27 03:02:43;;;;;;;4.37;3.97;;;6.90;99.90;;;;;;5026863;28;20204;-61
2024/03/27 03:05:09;;;;;;;4.50;3.27;;;7.00;99.90;;;;;;5029135;28;20220;-61
2024/03/27 03:07:34;;;;;;;5.60;4.20;;;7.00;99.90;;;;;;5033148;28;20306;-61
2024/03/27 03:10:00;;;;;;;3.80;3.23;;;7.00;99.90;;;;;;5033178;28;20176;-62
2024/03/27 03:12:25;;;;;;;4.53;3.37;;;7.00;99.90;;;;;;5032900;28;20166;-62
2024/03/27 03:14:51;;;;;;;5.03;3.50;;;7.00;99.90;;;;;;5032995;28;20203;-61
2024/03/27 03:17:16;;;;;;;5.70;3.40;;;7.00;99.90;;;;;;5032827;28;20265;-62
2024/03/27 03:19:42;;;;;;;3.93;3.30;;;6.90;99.90;;;;;;5032873;28;20646;-62
2024/03/27 03:22:11;;;;;;;4.10;3.13;;;7.00;99.90;;;;;;5032786;28;20240;-62
2024/03/27 03:24:36;;;;;;;6.43;3.73;;;7.00;99.90;;;;;;5032935;28;20207;-62
2024/03/27 03:27:02;;;;;;;4.70;3.87;;;6.90;99.90;;;;;;5032982;28;20971;-63
2024/03/27 03:29:27;;;;;;;11.93;4.00;;;6.90;99.90;;;;;;5032886;28;20168;-63
2024/03/27 03:31:54;;;;;;;4.80;3.47;;;6.90;99.90;;;;;;5032874;28;20578;-62
2024/03/27 03:34:19;;;;;;;3.33;3.03;;;6.90;99.90;;;;;;5032784;28;20199;-62
2024/03/27 03:36:45;;;;;;;4.30;3.23;;;6.90;99.90;;;;;;5032639;28;20411;-62
2024/03/27 03:39:11;;;;;;;6.23;4.30;;;6.90;99.90;;;;;;5032852;28;20256;-63
2024/03/27 03:41:36;;;;;;;4.60;3.37;;;6.90;99.90;;;;;;5032987;28;20186;-63
2024/03/27 03:44:02;;;;;;;5.37;3.70;;;6.90;99.90;;;;;;5032490;28;20201;-62
2024/03/27 03:46:27;;;;;;;4.37;3.80;;;6.90;99.90;;;;;;5032373;28;20286;-63
2024/03/27 03:48:53;;;;;;;11.73;3.83;;;6.90;99.90;;;;;;5032412;28;20181;-62
2024/03/27 03:51:18;;;;;;;4.83;3.80;;;6.90;99.90;;;;;;5032537;28;20271;-62
2024/03/27 03:53:44;;;;;;;4.70;3.57;;;6.90;99.90;;;;;;5032744;28;20178;-62
2024/03/27 03:56:10;;;;;;;4.47;3.40;;;6.90;99.90;;;;;;5029588;28;20198;-62
2024/03/27 03:58:35;;;;;;;4.43;4.03;;;6.90;99.90;;;;;;5032682;28;20183;-62
2024/03/27 04:01:01;;;;;;;3.80;3.23;;;6.90;99.90;;;;;;5032620;28;20279;-62
2024/03/27 04:03:26;;;;;;;5.50;3.50;;;6.90;99.90;;;;;;5032281;28;20225;-64
2024/03/27 04:05:52;;;;;;;3.73;3.20;;;6.90;99.90;;;;;;5032115;28;20215;-63
2024/03/27 04:08:17;;;;;;;3.23;2.87;;;7.00;99.90;;;;;;5032410;28;20549;-63
2024/03/27 04:10:44;;;;;;;5.20;3.80;;;6.90;99.90;;;;;;5032071;28;20182;-63
2024/03/27 04:13:10;;;;;;;7.40;4.13;;;7.00;99.90;;;;;;5032189;28;20168;-63
2024/03/27 04:15:39;;;;;;;4.77;4.37;;;7.00;99.90;;;;;;5031865;28;20439;-63
2024/03/27 04:18:05;;;;;;;4.60;3.63;;;6.90;99.90;;;;;;5031415;28;20784;-63
2024/03/27 04:20:30;;;;;;;5.87;4.37;;;6.90;99.90;;;;;;5032014;28;20412;-63
2024/03/27 04:22:57;;;;;;;6.07;3.90;;;7.00;99.90;;;;;;5031954;28;20203;-63
2024/03/27 04:25:23;;;;;;;8.23;3.77;;;7.00;99.90;;;;;;5032000;28;20615;-62
2024/03/27 04:27:49;;;;;;;5.00;3.40;;;6.90;99.90;;;;;;5032009;28;20407;-62
2024/03/27 04:30:16;;;;;;;5.33;3.43;;;6.90;99.90;;;;;;5032200;28;20427;-62
2024/03/27 04:32:42;;;;;;;5.90;3.73;;;6.90;99.90;;;;;;5032149;28;20419;-62
2024/03/27 04:35:09;;;;;;;8.73;4.23;;;6.90;99.90;;;;;;5031465;28;20448;-63
2024/03/27 04:37:35;;;;;;;6.90;4.20;;;6.90;99.90;;;;;;5032003;28;20505;-62
2024/03/27 04:40:00;;;;;;;4.10;3.70;;;6.90;99.90;;;;;;5031976;28;20510;-62
2024/03/27 04:42:26;;;;;;;6.60;3.43;;;7.00;99.90;;;;;;5031318;28;20185;-61
2024/03/27 04:44:52;;;;;;;7.50;3.20;;;7.00;99.90;;;;;;5028079;28;20185;-61
2024/03/27 04:47:17;;;;;;;4.63;3.80;;;7.00;99.90;;;;;;5031176;28;20176;-61
2024/03/27 04:49:43;;;;;;;8.00;4.17;;;7.00;99.90;;;;;;5027048;28;20173;-62
2024/03/27 04:52:08;;;;;;;4.90;2.70;;;7.00;99.90;;;;;;5021006;28;20251;-62
2024/03/27 04:54:34;;;;;;;6.57;4.10;;;7.00;99.90;;;;;;5021578;28;20195;-61
2024/03/27 04:56:59;;;;;;;5.77;3.37;;;7.00;99.90;;;;;;5021181;28;20185;-61
2024/03/27 04:59:25;;;;;;;4.60;3.77;;;6.90;99.90;;;;;;5023921;28;20640;-60
2024/03/27 05:01:50;;;;;;;4.70;3.30;;;7.00;99.90;;;;;;5025766;28;20626;-62
2024/03/27 05:04:16;;;;;;;5.27;3.07;;;7.00;99.90;;;;;;5020911;28;20212;-63
2024/03/27 05:06:43;;;;;;;7.10;3.10;;;7.00;99.90;;;;;;5016360;28;20204;-63
2024/03/27 05:09:12;;;;;;;4.00;3.60;;;6.90;99.90;;;;;;5022044;28;20420;-63
2024/03/27 05:11:38;;;;;;;4.37;3.97;;;7.00;99.90;;;;;;5023918;28;20177;-63
2024/03/27 05:14:04;;;;;;;3.43;3.13;;;6.90;99.90;;;;;;5020176;28;20411;-63
2024/03/27 05:16:30;;;;;;;6.43;4.17;;;7.00;99.90;;;;;;5021478;28;20534;-63
2024/03/27 05:18:55;;;;;;;5.50;3.43;;;7.00;99.90;;;;;;5025610;28;20176;-63
2024/03/27 05:21:21;;;;;;;4.63;3.93;;;7.00;99.90;;;;;;5024838;28;20207;-62
2024/03/27 05:23:47;;;;;;;3.63;3.33;;;7.00;99.90;;;;;;5025345;28;20632;-63
2024/03/27 05:26:12;;;;;;;6.30;3.50;;;7.00;99.90;;;;;;5025591;28;20214;-63
2024/03/27 05:28:38;;;;;;;4.47;3.50;;;7.10;99.90;;;;;;5024932;28;20269;-62
2024/03/27 05:31:04;;;;;;;4.47;3.20;;;7.10;99.90;;;;;;5021208;28;20561;-64
2024/03/27 05:33:29;;;;;;;7.27;4.10;;;7.10;99.90;;;;;;5024575;28;20191;-62
2024/03/27 05:35:55;;;;;;;5.00;3.60;;;7.20;99.90;;;;;;5024842;28;20199;-62
2024/03/27 05:38:21;;;;;;;3.80;2.70;;;7.20;99.90;;;;;;5030042;28;20557;-65
2024/03/27 05:40:46;;;;;;;5.57;3.00;;;7.30;99.90;;;;;;5030420;28;20182;-64
2024/03/27 05:43:12;;;;;;;4.00;3.20;;;7.30;99.90;;;;;;5029920;28;20216;-64
2024/03/27 05:45:38;;;;;;;6.23;3.43;;;7.40;99.90;;;;;;5029806;28;20217;-64
2024/03/27 05:48:04;;;;;;;4.37;3.77;;;7.40;99.90;;;;;;5029972;28;20317;-62
2024/03/27 05:50:30;;;;;;;4.63;3.40;;;7.50;99.90;;;;;;5030037;28;20231;-65
2024/03/27 05:52:55;;;;;;;6.27;3.67;;;7.50;99.90;;;;;;5026868;28;20503;-64
2024/03/27 05:55:21;;;;;;;9.47;3.70;;;7.50;99.90;;;;;;5029799;28;20614;-61
2024/03/27 05:57:46;;;;;;;6.27;4.00;;;7.60;99.90;;;;;;5029965;28;20221;-64
2024/03/27 06:00:14;;;;;;;5.33;3.70;;;7.60;99.90;;;;;;5029838;28;20192;-63
2024/03/27 06:02:40;;;;;;;4.10;3.57;;;7.70;99.90;;;;;;5029873;28;20531;-63
2024/03/27 06:05:06;;;;;;;8.83;3.47;;;7.70;99.90;;;;;;5029580;28;20463;-63
2024/03/27 06:07:32;;;;;;;7.57;3.40;;;7.70;99.90;;;;;;5044347;22;20598;-56
2024/03/27 06:09:58;;;;;;;5.60;3.33;;;7.70;99.90;;;;;;5031922;28;20642;-55
2024/03/27 06:12:23;;;;;;;7.57;3.53;;;7.80;99.90;;;;;;5032059;28;20208;-54
2024/03/27 06:14:49;;;;;;;3.77;3.10;;;7.70;99.90;;;;;;5031979;28;20254;-57
2024/03/27 06:17:14;;;;;;;5.70;3.27;;;7.70;99.90;;;;;;5031626;28;20561;-57
2024/03/27 06:19:40;;;;;;;6.53;3.73;;;7.80;99.90;;;;;;5031935;28;20176;-58
2024/03/27 06:22:06;;;;;;;4.50;3.10;;;7.80;99.90;;;;;;5031613;28;20739;-54
2024/03/27 06:24:31;;;;;;;6.13;3.73;;;7.90;99.90;;;;;;5031644;28;20244;-58
2024/03/27 06:26:57;;;;;;;3.50;3.20;;;7.90;99.90;;;;;;5031545;28;20202;-56
2024/03/27 06:29:22;;;;;;;5.17;3.47;;;8.00;99.90;;;;;;5031428;28;20202;-55
2024/03/27 06:31:48;;;;;;;6.50;4.03;;;8.10;99.90;;;;;;5031515;28;20178;-55
2024/03/27 06:34:13;;;;;;;4.40;3.23;;;8.20;99.90;;;;;;5031672;28;20191;-55
2024/03/27 06:36:39;;;;;;;5.37;3.73;;;8.20;99.90;;;;;;5023295;28;20192;-55
2024/03/27 06:39:12;;;;;;;5.57;3.00;;;8.30;99.90;;;;;;5031815;28;20210;-56
2024/03/27 06:41:42;;;;;;;4.80;3.63;;;8.40;99.90;;;;;;5031631;28;20232;-57
2024/03/27 06:44:08;;;;;;;5.00;3.23;;;8.40;99.90;;;;;;5026731;28;20467;-55
2024/03/27 06:46:37;;;;;;;4.40;4.00;;;8.60;99.90;;;;;;5031534;28;20563;-58
2024/03/27 06:49:18;;;;;;;4.33;3.03;;;8.80;99.90;;;;;;5031554;28;20499;-57
2024/03/27 06:51:47;;;;;;;4.97;3.43;;;8.80;99.90;;;;;;5027888;28;20416;-59
2024/03/27 06:54:13;;;;;;;4.00;3.27;;;9.00;99.90;;;;;;5031320;28;20884;-54
2024/03/27 06:56:38;;;;;;;5.03;3.30;;;9.10;99.90;;;;;;5031231;28;20449;-57
2024/03/27 06:59:04;;;;;;;4.90;2.80;;;9.40;99.90;;;;;;5032434;28;20225;-57
2024/03/27 07:01:30;;;;;;;5.00;3.60;;;9.60;99.50;;;;;;5030640;28;20186;-57
2024/03/27 07:03:55;;;;;;;3.70;3.37;;;9.70;99.10;;;;;;5031076;28;20230;-56
2024/03/27 07:06:21;;;;;;;6.20;3.87;;;9.90;99.00;;;;;;5031069;28;20505;-58
2024/03/27 07:08:46;;;;;;;5.40;3.30;;;9.90;98.50;;;;;;5031190;28;20604;-58
2024/03/27 07:11:12;;;;;;;5.03;3.30;;;10.30;97.40;;;;;;5031448;28;20670;-57
2024/03/27 07:13:37;;;;;;;6.97;4.27;;;10.50;96.10;;;;;;5031101;28;20187;-58
2024/03/27 07:16:03;;;;;;;4.27;3.03;;;10.50;95.90;;;;;;5031192;28;20343;-56
2024/03/27 07:18:29;;;;;;;8.20;3.73;;;10.70;96.20;;;;;;5026512;28;20203;-56
2024/03/27 07:20:58;;;;;;;6.77;3.67;;;10.90;96.40;;;;;;5031365;28;20183;-56
2024/03/27 07:23:27;;;;;;;6.93;3.67;;;11.20;95.10;;;;;;5030975;28;20294;-56
2024/03/27 07:25:53;;;;;;;4.63;3.20;;;11.20;93.90;;;;;;5031020;28;20422;-53
2024/03/27 07:28:19;;;;;;;3.80;3.00;;;11.00;94.20;;;;;;5030860;28;20434;-57
2024/03/27 07:30:50;;;;;;;3.23;2.63;;;11.20;94.60;;;;;;5030830;28;20427;-57
2024/03/27 07:33:17;;;;;;;2.57;2.33;;;11.20;93.70;;;;;;5031071;28;20266;-58
2024/03/27 07:35:43;;;;;;;5.27;3.10;;;11.50;93.40;;;;;;5023383;28;20790;-57
2024/03/27 07:38:08;;;;;;;4.60;3.20;;;11.50;94.00;;;;;;5030739;28;20429;-58
2024/03/27 07:40:34;;;;;;;4.20;2.60;;;11.90;93.50;;;;;;5030756;28;20871;-59
2024/03/27 07:42:59;;;;;;;3.63;2.50;;;12.10;91.60;;;;;;5026164;28;20228;-57
2024/03/27 07:45:25;;;;;;;5.23;2.97;;;12.70;91.70;;;;;;5030247;28;20569;-59
2024/03/27 07:47:52;;;;;;;6.67;3.80;;;13.00;89.30;;;;;;5030904;28;20201;-55
2024/03/27 07:50:18;;;;;;;3.53;3.00;;;12.90;88.20;;;;;;5031117;28;20269;-56
2024/03/27 07:52:43;;;;;;;6.43;3.00;;;13.00;90.10;;;;;;5023987;28;20919;-55
2024/03/27 07:55:09;;;;;;;5.50;2.80;;;13.30;88.50;;;;;;5034672;28;20186;-58
2024/03/27 07:57:35;;;;;;;8.00;2.70;;;13.70;89.30;;;;;;5034287;28;20219;-60
2024/03/27 08:00:03;;;;;;;3.50;2.53;;;13.80;82.70;;;;;;5034535;28;20190;-58
2024/03/27 08:02:29;;;;;;;4.70;2.80;;;13.10;85.30;;;;;;5034480;28;20894;-54
2024/03/27 08:04:55;;;;;;;4.20;3.00;;;13.60;85.80;;;;;;5034448;28;20470;-56
2024/03/27 08:07:21;;;;;;;2.73;2.20;;;14.60;81.40;;;;;;5034221;28;20217;-56
2024/03/27 08:09:53;;;;;;;8.07;2.40;;;14.70;81.00;;;;;;5029997;28;20650;-59
2024/03/27 08:12:19;;;;;;;2.80;2.40;;;14.30;80.00;;;;;;5034917;28;20185;-57
2024/03/27 08:14:45;;;;;;;3.70;2.23;;;15.10;79.50;;;;;;5026435;28;20460;-58
2024/03/27 08:17:11;;;;;;;2.77;2.50;;;15.50;76.00;;;;;;5034312;28;20253;-59
2024/03/27 08:19:40;;;;;;;4.00;2.27;;;16.30;74.20;;;;;;5034086;28;20527;-58
2024/03/27 08:22:09;;;;;;;3.80;2.50;;;16.50;70.00;;;;;;5034361;28;20433;-57
2024/03/27 08:24:35;;;;;;;7.83;3.10;;;16.70;70.30;;;;;;5033898;28;20464;-57
2024/03/27 08:27:04;;;;;;;5.57;2.80;;;16.60;70.70;;;;;;5028685;28;20454;-57
2024/03/27 08:29:31;;;;;;;4.40;2.10;;;16.40;71.00;;;;;;5033649;28;20911;-59
2024/03/27 08:32:00;;;;;;;4.30;2.57;;;15.80;72.40;;;;;;5033619;28;20422;-59
2024/03/27 08:34:27;;;;;;;3.17;2.87;;;15.80;73.40;;;;;;5033050;28;20422;-59
2024/03/27 08:36:54;;;;;;;5.27;2.47;;;16.50;72.70;;;;;;5033628;28;20489;-58
2024/03/27 08:39:20;;;;;;;5.27;3.07;;;16.50;73.10;;;;;;5034024;28;20414;-57
2024/03/27 08:41:47;;;;;;;4.90;2.80;;;16.00;69.40;;;;;;5030005;28;20552;-58
2024/03/27 08:44:15;;;;;;;2.90;2.30;;;15.70;71.40;;;;;;5032679;28;20522;-57
2024/03/27 08:46:41;;;;;;;3.67;2.63;;;16.20;71.50;;;;;;5033360;28;20430;-56
2024/03/27 08:49:06;;;;;;;4.47;3.20;;;17.00;69.90;;;;;;5033685;28;20441;-58
2024/03/27 08:51:32;;;;;;;8.10;2.67;;;17.20;67.30;;;;;;5033991;28;20796;-59
2024/03/27 08:53:58;;;;;;;3.60;2.50;;;17.50;64.40;;;;;;5033700;28;20183;-55
2024/03/27 08:56:23;;;;;;;5.80;2.07;;;17.40;67.70;;;;;;5032771;28;20211;-58
2024/03/27 08:58:49;;;;;;;2.77;2.27;;;17.90;64.10;;;;;;5032714;28;20208;-58
2024/03/27 09:01:19;;;;;;;2.60;2.40;;;18.20;62.00;;;;;;5032981;28;20187;-58
2024/03/27 09:03:46;;;;;;;2.87;2.13;;;18.30;62.20;;;;;;5032477;28;20288;-53
2024/03/27 09:06:13;;;;;;;2.30;2.00;;;18.00;64.50;;;;;;5032761;28;20431;-58
2024/03/27 09:08:39;;;;;;;4.00;2.23;;;18.10;65.90;;;;;;5032722;28;20484;-56
2024/03/27 09:11:07;;;;;;;3.43;2.10;;;17.70;65.10;;;;;;5033079;28;20868;-58
2024/03/27 09:13:33;;;;;;;5.03;2.47;;;17.90;64.50;;;;;;5030830;28;20436;-58
2024/03/27 09:15:59;;;;;;;3.60;2.97;;;18.70;63.30;;;;;;5031644;28;20422;-60
2024/03/27 09:18:25;;;;;;;5.43;2.33;;;19.30;59.00;;;;;;5030043;28;20203;-57
2024/03/27 09:20:55;;;;;;;2.50;2.23;;;18.20;61.20;;;;;;5032194;28;20229;-59
2024/03/27 09:23:22;;;;;;;3.70;2.40;;;18.00;60.30;;;;;;5031511;28;20559;-59
2024/03/27 09:25:54;;;;;;;2.90;2.27;;;18.20;61.30;;;;;;5031941;28;20458;-58
2024/03/27 09:28:21;;;;;;;2.27;1.83;;;18.10;63.10;;;;;;5031609;28;20819;-56
2024/03/27 09:30:47;;;;;;;1.90;1.80;;;18.30;60.10;;;;;;5031489;28;20535;-59
2024/03/27 09:33:13;;;;;;;5.10;2.37;;;18.20;59.90;;;;;;5031258;28;20988;-58
2024/03/27 09:35:39;;;;;;;4.17;2.20;;;18.00;61.50;;;;;;5029786;28;20188;-59
2024/03/27 09:38:04;;;;;;;3.00;1.87;;;18.40;61.60;;;;;;5031273;28;20469;-59
2024/03/27 09:40:30;;;;;;;5.37;2.50;;;18.30;61.00;;;;;;5031296;28;20181;-58
2024/03/27 09:42:57;;;;;;;3.37;2.10;;;18.50;58.60;;;;;;5032238;28;20257;-59
2024/03/27 09:45:24;;;;;;;2.63;2.40;;;18.70;58.50;;;;;;5032057;28;20652;-56
2024/03/27 09:47:50;;;;;;;2.50;2.27;;;19.10;58.50;;;;;;5030046;28;20801;-59
2024/03/27 09:50:16;;;;;;;2.40;2.20;;;18.90;58.20;;;;;;5028843;28;20427;-58
2024/03/27 09:52:42;;;;;;;3.33;2.70;;;18.60;58.30;;;;;;5031810;28;20189;-58
2024/03/27 09:55:10;;;;;;;2.93;2.37;;;17.90;61.90;;;;;;5032287;28;20186;-58
2024/03/27 09:57:36;;;;;;;5.77;2.43;;;17.60;60.60;;;;;;5031596;28;20437;-58
2024/03/27 10:00:02;;;;;;;2.73;2.30;;;17.00;60.80;;;;;;5030759;28;20935;-58
2024/03/27 10:02:28;;;;;;;3.77;2.23;;;17.50;60.00;;;;;;5014326;28;20190;-58
2024/03/27 10:04:54;;;;;;;3.53;2.67;;;17.60;61.90;;;;;;5031459;28;20465;-57
2024/03/27 10:07:21;;;;;;;3.37;1.83;;;17.60;59.50;;;;;;5026420;28;20208;-58
2024/03/27 10:09:46;;;;;;;5.50;2.40;;;17.50;59.50;;;;;;5031548;28;20836;-57
2024/03/27 10:12:12;;;;;;;2.60;2.03;;;17.00;59.70;;;;;;5031973;28;20510;-58
2024/03/27 10:14:38;;;;;;;1.80;1.70;;;17.20;61.80;;;;;;5031495;28;20224;-57
2024/03/27 10:17:04;;;;;;;4.43;2.87;;;16.90;60.40;;;;;;5031777;28;20243;-61
2024/03/27 10:19:30;;;;;;;3.07;2.00;;;16.80;60.40;;;;;;5014153;28;20193;-60
2024/03/27 10:21:55;;;;;;;3.70;2.13;;;16.70;62.60;;;;;;5031653;28;20437;-56
2024/03/27 10:24:21;;;;;;;4.30;2.13;;;16.80;62.10;;;;;;5027408;28;20204;-55
2024/03/27 10:26:48;;;;;;;2.70;2.50;;;16.90;62.70;;;;;;5031052;28;20198;-58
2024/03/27 10:29:14;;;;;;;3.37;2.43;;;16.60;61.50;;;;;;5031398;28;20190;-58
2024/03/27 10:31:39;;;;;;;4.07;2.37;;;16.60;62.60;;;;;;5031696;28;20851;-58
2024/03/27 10:34:08;;;;;;;3.37;2.00;;;16.70;63.00;;;;;;5031579;28;20289;-56
2024/03/27 10:36:35;;;;;;;2.40;1.87;;;16.60;62.90;;;;;;5031649;28;20183;-58
2024/03/27 10:39:04;;;;;;;3.13;1.77;;;16.60;63.10;;;;;;5031724;28;20457;-58
2024/03/27 10:41:30;;;;;;;5.03;2.30;;;16.30;62.00;;;;;;5030809;28;20460;-57
2024/03/27 10:43:57;;;;;;;5.07;2.20;;;15.90;63.40;;;;;;5031472;28;20520;-57
2024/03/27 10:46:24;;;;;;;4.17;2.20;;;16.20;63.80;;;;;;5031328;28;20278;-58
2024/03/27 10:48:51;;;;;;;2.37;1.80;;;16.30;63.60;;;;;;5031222;28;20888;-59
2024/03/27 10:51:19;;;;;;;3.00;2.27;;;16.60;64.00;;;;;;5031779;28;20781;-59
2024/03/27 10:53:45;;;;;;;3.13;2.40;;;16.30;63.10;;;;;;5031385;28;20523;-57
2024/03/27 10:56:12;;;;;;;2.47;2.20;;;16.30;64.40;;;;;;5031525;28;20478;-57
2024/03/27 10:58:38;;;;;;;2.77;2.57;;;16.70;65.10;;;;;;5030700;28;20461;-56
2024/03/27 11:01:05;;;;;;;3.73;2.60;;;16.70;63.70;;;;;;5031318;28;20484;-58
2024/03/27 11:03:30;;;;;;;3.73;2.57;;;16.60;64.10;;;;;;5030761;28;20469;-58
2024/03/27 11:05:59;;;;;;;2.57;2.07;;;16.80;64.40;;;;;;5031347;28;20783;-56
2024/03/27 11:08:28;;;;;;;6.13;2.30;;;16.80;63.10;;;;;;5031021;28;20307;-58
2024/03/27 11:11:04;;;;;;;2.80;2.00;;;17.00;63.30;;;;;;5031036;28;20415;-60
2024/03/27 11:13:30;;;;;;;2.60;2.17;;;17.30;63.00;;;;;;5031125;28;21094;-54
2024/03/27 11:15:56;;;;;;;4.00;1.90;;;17.10;63.30;;;;;;5025038;28;20425;-56
2024/03/27 11:18:32;;;;;;;3.93;2.03;;;17.10;63.80;;;;;;5031126;28;20573;-57
2024/03/27 11:20:58;;;;;;;2.40;2.00;;;17.10;63.10;;;;;;5023487;28;20423;-55
2024/03/27 11:23:34;;;;;;;3.40;2.30;;;17.00;64.10;;;;;;5030522;28;20461;-59
2024/03/27 11:26:03;;;;;;;3.00;2.10;;;17.10;64.30;;;;;;5029427;28;20425;-58
2024/03/27 11:28:29;;;;;;;2.73;2.00;;;17.30;64.00;;;;;;5033418;28;20946;-58
2024/03/27 11:30:55;;;;;;;2.07;1.60;;;17.30;63.10;;;;;;5034484;28;20801;-56
2024/03/27 11:33:22;;;;;;;3.83;2.33;;;17.40;63.70;;;;;;5030770;28;20436;-57
2024/03/27 11:35:48;;;;;;;2.23;1.70;;;17.40;63.10;;;;;;5034252;28;20458;-59
2024/03/27 11:38:20;;;;;;;2.43;2.03;;;17.10;64.40;;;;;;5034721;28;20446;-58
2024/03/27 11:40:45;;;;;;;4.50;2.10;;;17.00;64.90;;;;;;5032728;28;20415;-59
2024/03/27 11:43:11;;;;;;;2.30;2.10;;;17.10;65.30;;;;;;5034848;28;20512;-57
2024/03/27 11:45:37;;;;;;;4.80;2.73;;;17.10;64.80;;;;;;5034616;28;20269;-57
2024/03/27 11:48:03;;;;;;;3.23;2.07;;;17.20;65.50;;;;;;5033533;28;20767;-56
2024/03/27 11:50:29;;;;;;;3.20;1.97;;;17.20;65.80;;;;;;5033194;28;20424;-55
2024/03/27 11:52:55;;;;;;;4.20;2.00;;;17.40;64.70;;;;;;5034371;28;20419;-58
2024/03/27 11:55:20;;;;;;;2.30;2.10;;;17.20;64.40;;;;;;5033813;28;20219;-58
2024/03/27 11:57:46;;;;;;;3.70;2.53;;;17.20;65.40;;;;;;5032992;28;20209;-57
2024/03/27 12:00:13;;;;;;;2.60;1.97;;;17.20;64.30;;;;;;5032457;28;20740;-56
2024/03/27 12:02:41;;;;;;;2.13;1.57;;;17.20;65.30;;;;;;5033151;28;20752;-57
2024/03/27 12:05:07;;;;;;;4.03;1.77;;;17.10;65.20;;;;;;5034335;28;20423;-59
2024/03/27 12:07:34;;;;;;;2.93;2.40;;;17.20;65.50;;;;;;5033553;28;20448;-60
2024/03/27 12:10:02;;;;;;;2.63;1.93;;;17.30;65.30;;;;;;5034051;28;20955;-58
2024/03/27 12:12:28;;;;;;;3.37;2.60;;;17.40;66.50;;;;;;5033831;28;20422;-59
2024/03/27 12:14:57;;;;;;;3.70;1.80;;;17.60;64.30;;;;;;5033196;28;20431;-60
2024/03/27 12:17:41;;;;;;;2.20;1.80;;;17.80;64.60;;;;;;5034021;28;20909;-57
2024/03/27 12:20:11;;;;;;;2.07;1.80;;;18.10;64.70;;;;;;5033448;28;20419;-57
2024/03/27 12:22:37;;;;;;;4.53;2.30;;;18.40;63.90;;;;;;5029903;28;20426;-57
2024/03/27 12:25:04;;;;;;;2.50;2.00;;;18.30;63.70;;;;;;5030153;28;20413;-57
2024/03/27 12:27:32;;;;;;;3.27;1.83;;;18.40;63.80;;;;;;5034003;28;20202;-56
2024/03/27 12:29:57;;;;;;;6.43;2.00;;;18.40;63.10;;;;;;5032436;28;20425;-58
2024/03/27 12:32:27;;;;;;;2.17;1.63;;;18.60;62.60;;;;;;5033187;28;20416;-58
2024/03/27 12:34:53;;;;;;;5.10;2.07;;;18.30;61.40;;;;;;5033651;28;20594;-55
2024/03/27 12:37:19;;;;;;;2.13;1.80;;;18.10;63.60;;;;;;5033538;28;20448;-56
2024/03/27 12:39:45;;;;;;;3.23;2.00;;;18.20;63.60;;;;;;5032805;28;20792;-58
2024/03/27 12:42:11;;;;;;;2.77;1.70;;;18.00;63.40;;;;;;5033084;28;20227;-57
2024/03/27 12:44:37;;;;;;;3.27;1.87;;;18.00;63.50;;;;;;5033382;28;20624;-57
2024/03/27 12:47:03;;;;;;;4.13;2.27;;;18.10;64.40;;;;;;5015654;28;20419;-58
2024/03/27 12:49:29;;;;;;;2.87;2.40;;;18.30;64.60;;;;;;5033165;28;20482;-55